sensor_id;sensor_type;location;lat;lon;timestamp;P1;durP1;ratioP1;P2;durP2;ratioP2
75311;SDS011;63906;55.686;37.532;2023-07-20T00:04:41;1.48;;;0.77;;
75311;SDS011;63906;55.686;37.532;2023-07-20T00:09:44;3.67;;;1.00;;
75311;SDS011;63906;55.686;37.532;2023-07-20T00:14:44;1.97;;;1.07;;
75311;SDS011;63906;55.686;37.532;2023-07-20T00:19:45;1.08;;;0.95;;
75311;SDS011;63906;55.686;37.532;2023-07-20T00:24:45;3.83;;;1.10;;
75311;SDS011;63906;55.686;37.532;2023-07-20T00:29:46;1.33;;;0.60;;
75311;SDS011;63906;55.686;37.532;2023-07-20T00:34:46;1.98;;;1.00;;
75311;SDS011;63906;55.686;37.532;2023-07-20T00:39:49;4.47;;;0.90;;
75311;SDS011;63906;55.686;37.532;2023-07-20T00:44:50;3.15;;;0.90;;
75311;SDS011;63906;55.686;37.532;2023-07-20T00:49:51;1.83;;;0.80;;
75311;SDS011;63906;55.686;37.532;2023-07-20T00:54:53;2.53;;;1.13;;
75311;SDS011;63906;55.686;37.532;2023-07-20T00:59:56;1.92;;;0.63;;
75311;SDS011;63906;55.686;37.532;2023-07-20T01:04:56;2.90;;;0.80;;
75311;SDS011;63906;55.686;37.532;2023-07-20T01:15:04;1.70;;;0.82;;
75311;SDS011;63906;55.686;37.532;2023-07-20T01:20:08;1.65;;;0.60;;
75311;SDS011;63906;55.686;37.532;2023-07-20T01:36:07;1.40;;;0.60;;
75311;SDS011;63906;55.686;37.532;2023-07-20T01:41:10;2.33;;;0.80;;
75311;SDS011;63906;55.686;37.532;2023-07-20T01:46:11;1.20;;;0.98;;
75311;SDS011;63906;55.686;37.532;2023-07-20T01:51:11;1.42;;;0.77;;
75311;SDS011;63906;55.686;37.532;2023-07-20T01:56:12;1.80;;;0.88;;
75311;SDS011;63906;55.686;37.532;2023-07-20T02:01:12;1.15;;;0.65;;
75311;SDS011;63906;55.686;37.532;2023-07-20T02:06:13;2.23;;;1.00;;
75311;SDS011;63906;55.686;37.532;2023-07-20T02:11:14;2.20;;;0.77;;
75311;SDS011;63906;55.686;37.532;2023-07-20T02:16:14;1.02;;;0.73;;
75311;SDS011;63906;55.686;37.532;2023-07-20T02:21:15;1.43;;;0.67;;
75311;SDS011;63906;55.686;37.532;2023-07-20T02:26:15;1.63;;;0.70;;
75311;SDS011;63906;55.686;37.532;2023-07-20T02:31:16;1.65;;;0.95;;
75311;SDS011;63906;55.686;37.532;2023-07-20T02:36:19;1.27;;;0.80;;
75311;SDS011;63906;55.686;37.532;2023-07-20T02:41:20;1.43;;;1.00;;
75311;SDS011;63906;55.686;37.532;2023-07-20T02:46:20;0.90;;;0.70;;
75311;SDS011;63906;55.686;37.532;2023-07-20T02:51:24;1.13;;;0.82;;
75311;SDS011;63906;55.686;37.532;2023-07-20T02:56:24;1.02;;;0.70;;
75311;SDS011;63906;55.686;37.532;2023-07-20T03:01:27;1.10;;;0.80;;
75311;SDS011;63906;55.686;37.532;2023-07-20T03:06:29;3.30;;;0.98;;
75311;SDS011;63906;55.686;37.532;2023-07-20T03:11:29;1.00;;;0.77;;
75311;SDS011;63906;55.686;37.532;2023-07-20T03:16:30;1.33;;;0.90;;
75311;SDS011;63906;55.686;37.532;2023-07-20T03:21:32;1.10;;;0.82;;
75311;SDS011;63906;55.686;37.532;2023-07-20T03:26:35;1.92;;;0.80;;
75311;SDS011;63906;55.686;37.532;2023-07-20T03:31:37;1.23;;;0.82;;
75311;SDS011;63906;55.686;37.532;2023-07-20T03:36:37;3.10;;;0.90;;
75311;SDS011;63906;55.686;37.532;2023-07-20T03:41:37;1.75;;;0.65;;
75311;SDS011;63906;55.686;37.532;2023-07-20T03:46:38;2.03;;;0.63;;
75311;SDS011;63906;55.686;37.532;2023-07-20T03:51:39;1.90;;;0.60;;
75311;SDS011;63906;55.686;37.532;2023-07-20T03:56:39;1.27;;;0.80;;
75311;SDS011;63906;55.686;37.532;2023-07-20T04:01:40;2.33;;;0.70;;
75311;SDS011;63906;55.686;37.532;2023-07-20T04:06:40;5.10;;;0.98;;
75311;SDS011;63906;55.686;37.532;2023-07-20T04:11:41;3.13;;;0.80;;
75311;SDS011;63906;55.686;37.532;2023-07-20T04:16:41;1.42;;;0.60;;
75311;SDS011;63906;55.686;37.532;2023-07-20T04:21:42;1.70;;;1.00;;
75311;SDS011;63906;55.686;37.532;2023-07-20T04:26:42;1.10;;;0.70;;
75311;SDS011;63906;55.686;37.532;2023-07-20T04:31:43;1.42;;;0.90;;
75311;SDS011;63906;55.686;37.532;2023-07-20T04:36:44;1.85;;;0.70;;
75311;SDS011;63906;55.686;37.532;2023-07-20T04:41:44;1.58;;;0.60;;
75311;SDS011;63906;55.686;37.532;2023-07-20T04:46:45;1.70;;;0.57;;
75311;SDS011;63906;55.686;37.532;2023-07-20T04:51:46;1.00;;;0.70;;
75311;SDS011;63906;55.686;37.532;2023-07-20T04:56:46;1.05;;;0.50;;
75311;SDS011;63906;55.686;37.532;2023-07-20T05:01:50;1.53;;;0.80;;
75311;SDS011;63906;55.686;37.532;2023-07-20T05:06:50;1.48;;;0.75;;
75311;SDS011;63906;55.686;37.532;2023-07-20T05:11:51;0.90;;;0.63;;
75311;SDS011;63906;55.686;37.532;2023-07-20T05:16:51;1.17;;;0.77;;
75311;SDS011;63906;55.686;37.532;2023-07-20T05:21:52;2.25;;;1.23;;
75311;SDS011;63906;55.686;37.532;2023-07-20T05:26:52;2.00;;;0.77;;
75311;SDS011;63906;55.686;37.532;2023-07-20T05:31:55;2.60;;;0.50;;
75311;SDS011;63906;55.686;37.532;2023-07-20T05:36:56;1.80;;;0.60;;
75311;SDS011;63906;55.686;37.532;2023-07-20T05:41:56;0.87;;;0.87;;
75311;SDS011;63906;55.686;37.532;2023-07-20T05:46:56;0.40;;;0.37;;
75311;SDS011;63906;55.686;37.532;2023-07-20T05:51:57;2.15;;;0.80;;
75311;SDS011;63906;55.686;37.532;2023-07-20T05:56:58;0.85;;;0.70;;
75311;SDS011;63906;55.686;37.532;2023-07-20T06:02:01;2.00;;;0.80;;
75311;SDS011;63906;55.686;37.532;2023-07-20T06:07:02;1.65;;;0.80;;
75311;SDS011;63906;55.686;37.532;2023-07-20T06:12:02;2.38;;;0.77;;
75311;SDS011;63906;55.686;37.532;2023-07-20T06:17:03;2.70;;;0.50;;
75311;SDS011;63906;55.686;37.532;2023-07-20T06:22:04;0.85;;;0.50;;
75311;SDS011;63906;55.686;37.532;2023-07-20T06:27:05;2.03;;;0.70;;
75311;SDS011;63906;55.686;37.532;2023-07-20T06:32:06;3.25;;;0.80;;
75311;SDS011;63906;55.686;37.532;2023-07-20T06:37:07;0.80;;;0.45;;
75311;SDS011;63906;55.686;37.532;2023-07-20T06:42:08;1.40;;;0.50;;
75311;SDS011;63906;55.686;37.532;2023-07-20T06:47:08;2.28;;;0.63;;
75311;SDS011;63906;55.686;37.532;2023-07-20T06:52:09;2.60;;;0.80;;
75311;SDS011;63906;55.686;37.532;2023-07-20T06:57:09;1.92;;;0.70;;
75311;SDS011;63906;55.686;37.532;2023-07-20T07:02:10;0.95;;;0.60;;
75311;SDS011;63906;55.686;37.532;2023-07-20T07:07:10;1.30;;;0.60;;
75311;SDS011;63906;55.686;37.532;2023-07-20T07:12:11;2.90;;;0.60;;
75311;SDS011;63906;55.686;37.532;2023-07-20T07:17:11;1.02;;;0.70;;
75311;SDS011;63906;55.686;37.532;2023-07-20T07:22:12;1.02;;;0.50;;
75311;SDS011;63906;55.686;37.532;2023-07-20T07:27:13;1.15;;;0.50;;
75311;SDS011;63906;55.686;37.532;2023-07-20T07:32:16;4.93;;;0.50;;
75311;SDS011;63906;55.686;37.532;2023-07-20T07:37:19;1.33;;;0.60;;
75311;SDS011;63906;55.686;37.532;2023-07-20T07:42:20;2.85;;;0.75;;
75311;SDS011;63906;55.686;37.532;2023-07-20T07:47:20;2.10;;;0.43;;
75311;SDS011;63906;55.686;37.532;2023-07-20T07:52:20;1.63;;;0.32;;
75311;SDS011;63906;55.686;37.532;2023-07-20T07:57:21;1.55;;;0.40;;
75311;SDS011;63906;55.686;37.532;2023-07-20T08:02:22;2.08;;;0.65;;
75311;SDS011;63906;55.686;37.532;2023-07-20T08:07:22;1.73;;;0.70;;
75311;SDS011;63906;55.686;37.532;2023-07-20T08:12:23;1.73;;;0.70;;
75311;SDS011;63906;55.686;37.532;2023-07-20T08:17:23;1.52;;;0.60;;
75311;SDS011;63906;55.686;37.532;2023-07-20T08:22:24;1.83;;;0.70;;
75311;SDS011;63906;55.686;37.532;2023-07-20T08:27:25;3.10;;;0.60;;
75311;SDS011;63906;55.686;37.532;2023-07-20T08:32:28;2.35;;;0.70;;
75311;SDS011;63906;55.686;37.532;2023-07-20T08:37:29;0.80;;;0.50;;
75311;SDS011;63906;55.686;37.532;2023-07-20T08:42:29;2.13;;;0.52;;
75311;SDS011;63906;55.686;37.532;2023-07-20T08:47:30;1.73;;;0.70;;
75311;SDS011;63906;55.686;37.532;2023-07-20T08:52:34;1.95;;;0.57;;
75311;SDS011;63906;55.686;37.532;2023-07-20T08:57:37;1.45;;;0.70;;
75311;SDS011;63906;55.686;37.532;2023-07-20T09:02:43;2.53;;;0.60;;
75311;SDS011;63906;55.686;37.532;2023-07-20T09:07:46;3.97;;;0.60;;
75311;SDS011;63906;55.686;37.532;2023-07-20T09:12:47;2.50;;;0.70;;
75311;SDS011;63906;55.686;37.532;2023-07-20T09:17:48;0.73;;;0.50;;
75311;SDS011;63906;55.686;37.532;2023-07-20T09:22:50;0.82;;;0.50;;
75311;SDS011;63906;55.686;37.532;2023-07-20T09:27:52;1.65;;;0.75;;
75311;SDS011;63906;55.686;37.532;2023-07-20T09:32:56;2.20;;;0.70;;
75311;SDS011;63906;55.686;37.532;2023-07-20T09:38:00;1.92;;;0.90;;
75311;SDS011;63906;55.686;37.532;2023-07-20T09:43:01;1.60;;;0.70;;
75311;SDS011;63906;55.686;37.532;2023-07-20T09:48:04;0.95;;;0.63;;
75311;SDS011;63906;55.686;37.532;2023-07-20T09:53:06;2.60;;;1.10;;
75311;SDS011;63906;55.686;37.532;2023-07-20T09:58:08;1.90;;;0.60;;
75311;SDS011;63906;55.686;37.532;2023-07-20T10:03:09;2.38;;;0.80;;
75311;SDS011;63906;55.686;37.532;2023-07-20T10:08:12;1.42;;;0.82;;
75311;SDS011;63906;55.686;37.532;2023-07-20T10:13:17;2.00;;;0.98;;
75311;SDS011;63906;55.686;37.532;2023-07-20T10:23:54;1.63;;;0.60;;
75311;SDS011;63906;55.686;37.532;2023-07-20T10:28:56;1.25;;;0.75;;
75311;SDS011;63906;55.686;37.532;2023-07-20T10:33:57;2.03;;;1.08;;
75311;SDS011;63906;55.686;37.532;2023-07-20T10:38:58;2.08;;;0.90;;
75311;SDS011;63906;55.686;37.532;2023-07-20T10:44:01;3.35;;;0.95;;
75311;SDS011;63906;55.686;37.532;2023-07-20T10:49:06;1.52;;;0.95;;
75311;SDS011;63906;55.686;37.532;2023-07-20T10:54:08;2.15;;;1.10;;
75311;SDS011;63906;55.686;37.532;2023-07-20T11:04:39;2.65;;;1.27;;
75311;SDS011;63906;55.686;37.532;2023-07-20T11:09:43;1.88;;;0.90;;
75311;SDS011;63906;55.686;37.532;2023-07-20T11:14:54;3.97;;;1.50;;
75311;SDS011;63906;55.686;37.532;2023-07-20T11:19:57;3.15;;;1.15;;
75311;SDS011;63906;55.686;37.532;2023-07-20T11:25:01;1.95;;;1.20;;
75311;SDS011;63906;55.686;37.532;2023-07-20T11:30:01;1.40;;;0.90;;
75311;SDS011;63906;55.686;37.532;2023-07-20T11:35:02;1.48;;;1.00;;
75311;SDS011;63906;55.686;37.532;2023-07-20T11:40:03;2.63;;;0.82;;
75311;SDS011;63906;55.686;37.532;2023-07-20T11:45:05;2.03;;;0.98;;
75311;SDS011;63906;55.686;37.532;2023-07-20T11:50:06;1.75;;;1.00;;
75311;SDS011;63906;55.686;37.532;2023-07-20T12:00:09;1.38;;;1.05;;
75311;SDS011;63906;55.686;37.532;2023-07-20T12:05:14;4.60;;;1.35;;
75311;SDS011;63906;55.686;37.532;2023-07-20T12:10:15;1.08;;;0.80;;
75311;SDS011;63906;55.686;37.532;2023-07-20T12:15:22;2.45;;;1.08;;
75311;SDS011;63906;55.686;37.532;2023-07-20T12:20:30;4.32;;;1.20;;
75311;SDS011;63906;55.686;37.532;2023-07-20T12:25:39;1.98;;;1.00;;
75311;SDS011;63906;55.686;37.532;2023-07-20T12:30:40;2.25;;;1.20;;
75311;SDS011;63906;55.686;37.532;2023-07-20T12:35:41;2.95;;;0.90;;
75311;SDS011;63906;55.686;37.532;2023-07-20T12:40:43;1.58;;;1.00;;
75311;SDS011;63906;55.686;37.532;2023-07-20T12:45:43;3.47;;;0.80;;
75311;SDS011;63906;55.686;37.532;2023-07-20T12:50:44;1.50;;;0.90;;
75311;SDS011;63906;55.686;37.532;2023-07-20T12:55:45;2.55;;;1.05;;
75311;SDS011;63906;55.686;37.532;2023-07-20T13:00:45;1.42;;;1.02;;
75311;SDS011;63906;55.686;37.532;2023-07-20T13:05:46;1.58;;;0.90;;
75311;SDS011;63906;55.686;37.532;2023-07-20T13:10:47;2.60;;;0.90;;
75311;SDS011;63906;55.686;37.532;2023-07-20T13:15:49;2.03;;;1.10;;
75311;SDS011;63906;55.686;37.532;2023-07-20T13:20:50;1.65;;;1.00;;
75311;SDS011;63906;55.686;37.532;2023-07-20T13:25:50;2.75;;;1.10;;
75311;SDS011;63906;55.686;37.532;2023-07-20T13:35:51;1.50;;;0.90;;
75311;SDS011;63906;55.686;37.532;2023-07-20T13:45:52;2.03;;;1.27;;
75311;SDS011;63906;55.686;37.532;2023-07-20T13:50:52;3.40;;;1.20;;
75311;SDS011;63906;55.686;37.532;2023-07-20T13:55:54;3.05;;;1.00;;
75311;SDS011;63906;55.686;37.532;2023-07-20T14:00:54;1.48;;;1.00;;
75311;SDS011;63906;55.686;37.532;2023-07-20T14:05:55;2.13;;;0.90;;
75311;SDS011;63906;55.686;37.532;2023-07-20T14:10:56;1.20;;;1.08;;
75311;SDS011;63906;55.686;37.532;2023-07-20T14:15:57;2.22;;;1.05;;
75311;SDS011;63906;55.686;37.532;2023-07-20T14:20:57;1.83;;;1.17;;
75311;SDS011;63906;55.686;37.532;2023-07-20T14:25:58;2.60;;;1.38;;
75311;SDS011;63906;55.686;37.532;2023-07-20T14:30:59;3.10;;;1.27;;
75311;SDS011;63906;55.686;37.532;2023-07-20T14:35:59;1.60;;;1.05;;
75311;SDS011;63906;55.686;37.532;2023-07-20T14:41:01;3.38;;;1.30;;
75311;SDS011;63906;55.686;37.532;2023-07-20T14:46:02;1.30;;;1.00;;
75311;SDS011;63906;55.686;37.532;2023-07-20T14:51:03;1.80;;;0.90;;
75311;SDS011;63906;55.686;37.532;2023-07-20T14:56:06;1.10;;;1.00;;
75311;SDS011;63906;55.686;37.532;2023-07-20T15:06:11;2.40;;;1.20;;
75311;SDS011;63906;55.686;37.532;2023-07-20T15:11:12;2.08;;;1.20;;
75311;SDS011;63906;55.686;37.532;2023-07-20T15:16:12;1.90;;;1.05;;
75311;SDS011;63906;55.686;37.532;2023-07-20T15:21:13;2.72;;;1.17;;
75311;SDS011;63906;55.686;37.532;2023-07-20T15:26:14;1.38;;;0.88;;
75311;SDS011;63906;55.686;37.532;2023-07-20T15:31:15;2.28;;;0.68;;
75311;SDS011;63906;55.686;37.532;2023-07-20T15:36:20;1.60;;;0.80;;
75311;SDS011;63906;55.686;37.532;2023-07-20T15:41:20;1.83;;;0.77;;
75311;SDS011;63906;55.686;37.532;2023-07-20T15:51:36;1.15;;;0.50;;
75311;SDS011;63906;55.686;37.532;2023-07-20T15:56:38;2.67;;;0.85;;
75311;SDS011;63906;55.686;37.532;2023-07-20T16:01:40;1.08;;;0.70;;
75311;SDS011;63906;55.686;37.532;2023-07-20T16:06:42;4.10;;;0.85;;
75311;SDS011;63906;55.686;37.532;2023-07-20T16:11:42;1.88;;;0.80;;
75311;SDS011;63906;55.686;37.532;2023-07-20T16:16:43;1.90;;;0.80;;
75311;SDS011;63906;55.686;37.532;2023-07-20T16:21:44;2.35;;;0.98;;
75311;SDS011;63906;55.686;37.532;2023-07-20T16:26:45;1.52;;;1.00;;
75311;SDS011;63906;55.686;37.532;2023-07-20T16:31:45;1.95;;;0.90;;
75311;SDS011;63906;55.686;37.532;2023-07-20T16:36:46;1.52;;;0.70;;
75311;SDS011;63906;55.686;37.532;2023-07-20T16:41:46;2.33;;;0.90;;
75311;SDS011;63906;55.686;37.532;2023-07-20T16:46:47;2.22;;;0.95;;
75311;SDS011;63906;55.686;37.532;2023-07-20T16:51:47;1.27;;;0.90;;
75311;SDS011;63906;55.686;37.532;2023-07-20T16:56:48;1.50;;;1.10;;
75311;SDS011;63906;55.686;37.532;2023-07-20T17:01:48;1.67;;;0.80;;
75311;SDS011;63906;55.686;37.532;2023-07-20T17:06:52;2.30;;;0.90;;
75311;SDS011;63906;55.686;37.532;2023-07-20T17:11:52;2.33;;;1.00;;
75311;SDS011;63906;55.686;37.532;2023-07-20T17:16:54;1.60;;;0.90;;
75311;SDS011;63906;55.686;37.532;2023-07-20T17:26:57;2.00;;;0.95;;
75311;SDS011;63906;55.686;37.532;2023-07-20T17:31:57;1.97;;;1.00;;
75311;SDS011;63906;55.686;37.532;2023-07-20T17:36:58;1.65;;;0.80;;
75311;SDS011;63906;55.686;37.532;2023-07-20T17:41:59;2.20;;;1.30;;
75311;SDS011;63906;55.686;37.532;2023-07-20T17:46:59;2.55;;;1.00;;
75311;SDS011;63906;55.686;37.532;2023-07-20T17:52:00;0.90;;;0.73;;
75311;SDS011;63906;55.686;37.532;2023-07-20T17:57:00;1.70;;;0.90;;
75311;SDS011;63906;55.686;37.532;2023-07-20T18:02:01;2.13;;;0.80;;
75311;SDS011;63906;55.686;37.532;2023-07-20T18:07:03;1.27;;;0.77;;
75311;SDS011;63906;55.686;37.532;2023-07-20T18:12:03;1.55;;;1.08;;
75311;SDS011;63906;55.686;37.532;2023-07-20T18:17:07;1.45;;;0.90;;
75311;SDS011;63906;55.686;37.532;2023-07-20T18:22:08;1.95;;;1.00;;
75311;SDS011;63906;55.686;37.532;2023-07-20T18:27:08;1.80;;;1.00;;
75311;SDS011;63906;55.686;37.532;2023-07-20T18:32:09;2.23;;;1.07;;
75311;SDS011;63906;55.686;37.532;2023-07-20T18:37:10;1.02;;;0.80;;
75311;SDS011;63906;55.686;37.532;2023-07-20T18:42:11;1.00;;;0.80;;
75311;SDS011;63906;55.686;37.532;2023-07-20T18:47:15;1.52;;;0.98;;
75311;SDS011;63906;55.686;37.532;2023-07-20T18:52:15;1.42;;;0.80;;
75311;SDS011;63906;55.686;37.532;2023-07-20T18:57:16;2.17;;;0.75;;
75311;SDS011;63906;55.686;37.532;2023-07-20T19:02:19;4.63;;;1.23;;
75311;SDS011;63906;55.686;37.532;2023-07-20T19:07:20;1.88;;;1.30;;
75311;SDS011;63906;55.686;37.532;2023-07-20T19:12:21;2.17;;;1.10;;
75311;SDS011;63906;55.686;37.532;2023-07-20T19:17:21;2.33;;;1.30;;
75311;SDS011;63906;55.686;37.532;2023-07-20T19:22:25;2.20;;;1.33;;
75311;SDS011;63906;55.686;37.532;2023-07-20T19:27:25;2.38;;;1.30;;
75311;SDS011;63906;55.686;37.532;2023-07-20T19:32:26;2.40;;;1.48;;
75311;SDS011;63906;55.686;37.532;2023-07-20T19:37:27;3.33;;;1.88;;
75311;SDS011;63906;55.686;37.532;2023-07-20T19:42:28;5.60;;;2.40;;
75311;SDS011;63906;55.686;37.532;2023-07-20T19:47:28;4.27;;;2.67;;
75311;SDS011;63906;55.686;37.532;2023-07-20T19:52:29;4.72;;;2.40;;
75311;SDS011;63906;55.686;37.532;2023-07-20T19:57:30;2.70;;;1.60;;
75311;SDS011;63906;55.686;37.532;2023-07-20T20:02:31;3.38;;;1.58;;
75311;SDS011;63906;55.686;37.532;2023-07-20T20:07:32;2.50;;;1.40;;
75311;SDS011;63906;55.686;37.532;2023-07-20T20:12:34;3.22;;;1.73;;
75311;SDS011;63906;55.686;37.532;2023-07-20T20:17:35;1.67;;;1.10;;
75311;SDS011;63906;55.686;37.532;2023-07-20T20:22:36;2.17;;;1.30;;
75311;SDS011;63906;55.686;37.532;2023-07-20T20:27:37;1.98;;;1.20;;
75311;SDS011;63906;55.686;37.532;2023-07-20T20:32:39;2.30;;;1.20;;
75311;SDS011;63906;55.686;37.532;2023-07-20T20:37:43;2.58;;;1.17;;
75311;SDS011;63906;55.686;37.532;2023-07-20T20:42:44;2.63;;;1.00;;
75311;SDS011;63906;55.686;37.532;2023-07-20T20:47:44;1.70;;;1.13;;
75311;SDS011;63906;55.686;37.532;2023-07-20T20:52:46;1.90;;;1.00;;
75311;SDS011;63906;55.686;37.532;2023-07-20T20:57:47;1.70;;;0.93;;
75311;SDS011;63906;55.686;37.532;2023-07-20T21:02:48;1.20;;;0.80;;
75311;SDS011;63906;55.686;37.532;2023-07-20T21:07:50;1.85;;;1.15;;
75311;SDS011;63906;55.686;37.532;2023-07-20T21:12:51;2.58;;;1.20;;
75311;SDS011;63906;55.686;37.532;2023-07-20T21:17:51;1.43;;;0.93;;
75311;SDS011;63906;55.686;37.532;2023-07-20T21:22:52;1.65;;;0.95;;
75311;SDS011;63906;55.686;37.532;2023-07-20T21:27:52;0.90;;;0.60;;
75311;SDS011;63906;55.686;37.532;2023-07-20T21:32:54;1.50;;;1.05;;
75311;SDS011;63906;55.686;37.532;2023-07-20T21:37:56;1.05;;;0.55;;
75311;SDS011;63906;55.686;37.532;2023-07-20T21:42:56;1.57;;;0.90;;
75311;SDS011;63906;55.686;37.532;2023-07-20T21:47:59;1.60;;;0.65;;
75311;SDS011;63906;55.686;37.532;2023-07-20T21:53:00;1.30;;;0.80;;
75311;SDS011;63906;55.686;37.532;2023-07-20T21:58:01;2.88;;;0.95;;
75311;SDS011;63906;55.686;37.532;2023-07-20T22:03:01;1.33;;;1.00;;
75311;SDS011;63906;55.686;37.532;2023-07-20T22:08:02;1.88;;;1.10;;
75311;SDS011;63906;55.686;37.532;2023-07-20T22:13:03;1.02;;;0.68;;
75311;SDS011;63906;55.686;37.532;2023-07-20T22:18:04;1.35;;;0.70;;
75311;SDS011;63906;55.686;37.532;2023-07-20T22:23:05;1.20;;;0.60;;
75311;SDS011;63906;55.686;37.532;2023-07-20T22:28:06;1.63;;;0.73;;
75311;SDS011;63906;55.686;37.532;2023-07-20T22:33:06;1.08;;;0.70;;
75311;SDS011;63906;55.686;37.532;2023-07-20T22:38:07;1.03;;;0.60;;
75311;SDS011;63906;55.686;37.532;2023-07-20T22:43:08;0.95;;;0.50;;
75311;SDS011;63906;55.686;37.532;2023-07-20T22:48:09;1.73;;;1.10;;
75311;SDS011;63906;55.686;37.532;2023-07-20T22:53:11;2.17;;;1.20;;
75311;SDS011;63906;55.686;37.532;2023-07-20T22:58:12;2.33;;;1.27;;
75311;SDS011;63906;55.686;37.532;2023-07-20T23:03:12;2.33;;;1.42;;
75311;SDS011;63906;55.686;37.532;2023-07-20T23:08:13;2.23;;;1.60;;
75311;SDS011;63906;55.686;37.532;2023-07-20T23:13:13;2.45;;;1.52;;
75311;SDS011;63906;55.686;37.532;2023-07-20T23:18:14;3.13;;;1.60;;
75311;SDS011;63906;55.686;37.532;2023-07-20T23:23:15;2.73;;;1.17;;
75311;SDS011;63906;55.686;37.532;2023-07-20T23:28:15;2.42;;;1.50;;
75311;SDS011;63906;55.686;37.532;2023-07-20T23:33:16;2.17;;;1.30;;
75311;SDS011;63906;55.686;37.532;2023-07-20T23:38:17;2.28;;;1.20;;
75311;SDS011;63906;55.686;37.532;2023-07-20T23:43:18;3.55;;;1.30;;
75311;SDS011;63906;55.686;37.532;2023-07-20T23:48:19;1.50;;;1.00;;
75311;SDS011;63906;55.686;37.532;2023-07-20T23:53:19;3.00;;;1.23;;
75311;SDS011;63906;55.686;37.532;2023-07-20T23:58:19;2.43;;;1.40;;
